createdAt,value
2022-08-20T00:01:16.827Z,5.10
2022-08-20T00:03:49.992Z,5.07
2022-08-20T00:06:22.706Z,5.13
2022-08-20T00:08:50.736Z,5.40
2022-08-20T00:11:24.252Z,5.50
2022-08-20T00:13:57.933Z,5.13
2022-08-20T00:16:27.868Z,5.40
2022-08-20T00:18:55.953Z,5.13
2022-08-20T00:21:25.372Z,5.82
2022-08-20T00:23:54.909Z,5.78
2022-08-20T00:26:23.133Z,5.47
2022-08-20T00:28:50.675Z,5.60
2022-08-20T00:31:22.052Z,6.30
2022-08-20T00:33:50.044Z,5.38
2022-08-20T00:36:18.144Z,5.75
2022-08-20T00:38:46.959Z,6.03
2022-08-20T00:41:20.034Z,5.43
2022-08-20T00:43:51.964Z,6.88
2022-08-20T00:46:30.928Z,5.70
2022-08-20T00:49:01.763Z,6.22
2022-08-20T00:51:39.093Z,5.22
2022-08-20T00:54:16.128Z,5.82
2022-08-20T00:56:51.044Z,5.40
2022-08-20T00:59:25.365Z,6.05
2022-08-20T01:04:31.399Z,5.93
2022-08-20T01:06:59.964Z,6.18
2022-08-20T01:09:50.311Z,6.10
2022-08-20T01:12:16.718Z,6.00
2022-08-20T01:14:45.503Z,5.95
2022-08-20T01:17:22.230Z,6.10
2022-08-20T01:19:59.330Z,6.20
2022-08-20T01:22:58.672Z,7.10
2022-08-20T01:25:53.425Z,6.60
2022-08-20T01:28:34.168Z,6.22
2022-08-20T01:31:03.708Z,6.38
2022-08-20T01:33:32.007Z,6.40
2022-08-20T01:36:00.565Z,6.00
2022-08-20T01:38:29.788Z,5.60
2022-08-20T01:41:28.722Z,5.70
2022-08-20T01:43:58.375Z,5.95
2022-08-20T01:46:30.185Z,5.22
2022-08-20T01:48:58.723Z,5.68
2022-08-20T01:51:30.512Z,6.03
2022-08-20T01:53:59.861Z,5.93
2022-08-20T01:56:31.638Z,5.57
2022-08-20T01:59:02.376Z,5.80
2022-08-20T02:01:46.177Z,5.78
2022-08-20T02:04:15.282Z,5.53
2022-08-20T02:06:56.598Z,5.57
2022-08-20T02:09:30.256Z,5.75
2022-08-20T02:11:58.925Z,5.40
2022-08-20T02:14:27.790Z,5.78
2022-08-20T02:16:58.362Z,6.03
2022-08-20T02:19:38.390Z,5.72
2022-08-20T02:22:17.893Z,5.38
2022-08-20T02:24:45.693Z,5.70
2022-08-20T02:27:13.805Z,5.97
2022-08-20T02:29:41.752Z,5.85
2022-08-20T02:32:32.770Z,5.57
2022-08-20T02:34:57.176Z,6.13
2022-08-20T02:37:24.808Z,5.55
2022-08-20T02:39:52.234Z,5.95
2022-08-20T02:42:19.645Z,5.65
2022-08-20T02:44:47.256Z,5.70
2022-08-20T02:47:17.137Z,4.88
2022-08-20T02:49:44.581Z,5.57
2022-08-20T02:52:12.272Z,5.88
2022-08-20T02:54:39.880Z,4.70
2022-08-20T02:57:13.366Z,5.25
2022-08-20T02:59:41.301Z,5.45
2022-08-20T03:02:08.689Z,5.50
2022-08-20T03:04:36.414Z,5.28
2022-08-20T03:07:06.084Z,5.78
2022-08-20T03:09:33.553Z,4.82
2022-08-20T03:12:00.964Z,5.10
2022-08-20T03:14:28.869Z,5.10
2022-08-20T03:16:56.621Z,5.35
2022-08-20T03:19:24.059Z,5.28
2022-08-20T03:21:51.896Z,5.18
2022-08-20T03:24:19.717Z,5.95
2022-08-20T03:26:47.374Z,5.60
2022-08-20T03:29:15.118Z,5.40
2022-08-20T03:31:42.759Z,5.50
2022-08-20T03:34:10.209Z,5.93
2022-08-20T03:36:38.211Z,5.85
2022-08-20T03:39:11.580Z,5.97
2022-08-20T03:41:39.459Z,5.87
2022-08-20T03:44:06.969Z,5.88
2022-08-20T03:46:34.952Z,5.72
2022-08-20T03:49:03.446Z,5.85
2022-08-20T03:51:31.686Z,6.13
2022-08-20T03:54:11.610Z,6.55
2022-08-20T03:56:39.121Z,5.80
2022-08-20T03:59:06.589Z,6.50
2022-08-20T04:01:45.827Z,6.22
2022-08-20T04:04:15.108Z,6.40
2022-08-20T04:06:43.253Z,6.15
2022-08-20T04:09:11.806Z,6.65
2022-08-20T04:11:40.991Z,6.57
2022-08-20T04:14:11.353Z,6.43
2022-08-20T04:16:41.712Z,6.15
2022-08-20T04:19:09.185Z,6.63
2022-08-20T04:21:36.902Z,6.68
2022-08-20T04:24:06.146Z,6.80
2022-08-20T04:26:35.576Z,7.03
2022-08-20T04:29:04.068Z,7.35
2022-08-20T04:31:34.921Z,6.53
2022-08-20T04:34:07.879Z,7.30
2022-08-20T04:36:35.559Z,6.63
2022-08-20T04:39:03.344Z,7.43
2022-08-20T04:41:30.825Z,7.45
2022-08-20T04:43:58.618Z,7.75
2022-08-20T04:46:28.523Z,7.30
2022-08-20T04:48:57.615Z,7.43
2022-08-20T04:51:25.725Z,7.43
2022-08-20T04:53:54.952Z,8.13
2022-08-20T04:56:26.757Z,7.53
2022-08-20T04:58:58.341Z,7.07
2022-08-20T05:01:26.653Z,7.15
2022-08-20T05:03:57.380Z,7.88
2022-08-20T05:06:29.137Z,8.13
2022-08-20T05:08:58.744Z,9.15
2022-08-20T05:11:35.539Z,9.40
2022-08-20T05:14:08.895Z,9.38
2022-08-20T05:16:39.313Z,10.25
2022-08-20T05:19:10.060Z,9.60
2022-08-20T05:21:38.651Z,9.13
2022-08-20T05:24:06.719Z,9.68
2022-08-20T05:26:34.563Z,9.73
2022-08-20T05:29:04.897Z,9.70
2022-08-20T05:31:34.662Z,9.20
2022-08-20T05:34:09.802Z,9.00
2022-08-20T05:36:43.960Z,9.50
2022-08-20T05:39:13.288Z,9.35
2022-08-20T05:41:41.009Z,9.32
2022-08-20T05:44:13.109Z,9.50
2022-08-20T05:46:42.692Z,9.13
2022-08-20T05:49:13.496Z,9.07
2022-08-20T05:51:41.072Z,8.82
2022-08-20T05:54:08.593Z,9.50
2022-08-20T05:56:37.744Z,9.18
2022-08-20T05:59:07.057Z,9.10
2022-08-20T06:01:36.905Z,9.30
2022-08-20T06:04:23.764Z,8.85
2022-08-20T06:06:53.601Z,9.98
2022-08-20T06:09:31.220Z,9.00
2022-08-20T06:12:02.224Z,9.88
2022-08-20T06:14:30.888Z,9.82
2022-08-20T06:17:15.185Z,9.40
2022-08-20T06:19:45.576Z,8.98
2022-08-20T06:22:19.719Z,9.40
2022-08-20T06:24:55.316Z,9.02
2022-08-20T06:27:23.792Z,9.50
2022-08-20T06:29:52.027Z,9.50
2022-08-20T06:32:32.363Z,10.23
2022-08-20T06:35:02.293Z,9.23
2022-08-20T06:37:32.616Z,9.93
2022-08-20T06:40:05.078Z,9.93
2022-08-20T06:42:33.193Z,9.95
2022-08-20T06:45:04.746Z,10.15
2022-08-20T06:47:33.461Z,9.93
2022-08-20T06:50:01.184Z,10.68
2022-08-20T06:52:52.461Z,10.57
2022-08-20T06:55:17.428Z,9.55
2022-08-20T06:57:44.961Z,9.88
2022-08-20T07:00:18.884Z,9.27
2022-08-20T07:02:47.956Z,9.50
2022-08-20T07:05:16.430Z,9.30
2022-08-20T07:07:49.515Z,9.30
2022-08-20T07:10:19.057Z,8.85
2022-08-20T07:12:47.312Z,9.40
2022-08-20T07:15:15.257Z,9.60
2022-08-20T07:17:48.189Z,8.88
2022-08-20T07:20:16.132Z,9.05
2022-08-20T07:22:43.879Z,9.15
2022-08-20T07:25:14.314Z,9.40
2022-08-20T07:27:43.051Z,9.05
2022-08-20T07:30:34.441Z,8.88
2022-08-20T07:33:21.930Z,9.27
2022-08-20T07:35:49.775Z,9.73
2022-08-20T07:38:24.714Z,9.70
2022-08-20T07:40:55.186Z,9.05
2022-08-20T07:43:25.577Z,9.45
2022-08-20T07:45:58.858Z,9.77
2022-08-20T07:48:32.031Z,9.43
2022-08-20T07:51:03.664Z,9.10
2022-08-20T07:53:36.395Z,9.13
2022-08-20T07:56:06.639Z,9.07
2022-08-20T07:58:38.353Z,9.55
2022-08-20T08:01:06.753Z,9.05
2022-08-20T08:03:39.427Z,9.25
2022-08-20T08:06:29.503Z,8.80
2022-08-20T08:09:13.161Z,9.43
2022-08-20T08:11:47.689Z,9.20
2022-08-20T08:14:19.483Z,9.82
2022-08-20T08:16:47.685Z,9.30
2022-08-20T08:19:17.352Z,8.85
2022-08-20T08:21:44.980Z,9.02
2022-08-20T08:24:19.239Z,9.10
2022-08-20T08:26:50.071Z,8.88
2022-08-20T08:29:18.308Z,8.60
2022-08-20T08:31:45.879Z,8.75
2022-08-20T08:34:14.310Z,8.60
2022-08-20T08:36:44.073Z,8.55
2022-08-20T08:39:11.494Z,8.30
2022-08-20T08:41:48.432Z,8.40
2022-08-20T08:44:24.452Z,8.35
2022-08-20T08:47:00.541Z,8.70
2022-08-20T08:49:37.780Z,8.15
2022-08-20T08:52:12.254Z,7.85
2022-08-20T08:54:45.784Z,8.73
2022-08-20T08:57:13.821Z,7.72
2022-08-20T08:59:48.590Z,7.78
2022-08-20T09:02:30.853Z,8.32
2022-08-20T09:05:02.196Z,7.38
2022-08-20T09:07:32.609Z,8.20
2022-08-20T09:10:02.314Z,8.45
2022-08-20T09:12:29.808Z,8.15
2022-08-20T09:14:58.249Z,8.38
2022-08-20T09:17:25.982Z,8.25
2022-08-20T09:19:54.307Z,8.50
2022-08-20T09:22:25.905Z,8.35
2022-08-20T09:24:53.637Z,8.18
2022-08-20T09:27:21.167Z,7.95
2022-08-20T09:29:49.400Z,8.55
2022-08-20T09:32:21.347Z,8.43
2022-08-20T09:34:52.689Z,7.78
2022-08-20T09:37:20.425Z,8.30
2022-08-20T09:39:48.525Z,7.95
2022-08-20T09:42:20.753Z,7.55
2022-08-20T09:44:50.962Z,7.50
2022-08-20T09:47:19.534Z,7.60
2022-08-20T09:49:47.430Z,7.55
2022-08-20T09:52:26.946Z,7.53
2022-08-20T09:54:59.203Z,7.57
2022-08-20T09:57:29.471Z,7.80
2022-08-20T10:00:05.138Z,7.65
2022-08-20T10:02:32.820Z,7.38
2022-08-20T10:05:00.480Z,8.07
2022-08-20T10:07:28.008Z,6.65
2022-08-20T10:09:57.190Z,7.50
2022-08-20T10:12:24.605Z,7.00
2022-08-20T10:14:52.120Z,7.85
2022-08-20T10:17:19.745Z,6.43
2022-08-20T10:19:47.488Z,7.25
2022-08-20T10:22:15.047Z,7.50
2022-08-20T10:24:43.107Z,7.10
2022-08-20T10:27:10.544Z,7.25
2022-08-20T10:29:38.049Z,7.10
2022-08-20T10:32:12.583Z,7.13
2022-08-20T10:34:42.736Z,6.97
2022-08-20T10:37:20.966Z,6.75
2022-08-20T10:39:48.475Z,6.57
2022-08-20T10:42:16.174Z,6.72
2022-08-20T10:44:44.125Z,6.97
2022-08-20T10:47:24.965Z,6.88
2022-08-20T10:49:54.773Z,7.35
2022-08-20T10:52:23.668Z,7.00
2022-08-20T10:54:51.851Z,6.72
2022-08-20T10:57:27.887Z,6.32
2022-08-20T10:59:57.412Z,7.20
2022-08-20T11:02:27.192Z,7.85
2022-08-20T11:04:55.424Z,7.57
2022-08-20T11:07:50.848Z,7.38
2022-08-20T11:10:18.750Z,7.25
2022-08-20T11:12:46.498Z,7.50
2022-08-20T11:15:15.073Z,7.07
2022-08-20T11:17:45.145Z,8.40
2022-08-20T11:20:15.150Z,7.78
2022-08-20T11:22:42.535Z,7.30
2022-08-20T11:25:10.736Z,7.78
2022-08-20T11:27:42.411Z,7.90
2022-08-20T11:30:14.057Z,7.60
2022-08-20T11:32:42.011Z,7.28
2022-08-20T11:35:40.527Z,9.10
2022-08-20T11:37:59.302Z,8.45
2022-08-20T11:40:29.558Z,10.57
2022-08-20T11:43:14.270Z,20.15
2022-08-20T11:45:44.642Z,13.68
2022-08-20T11:48:12.378Z,11.27
2022-08-20T11:50:39.918Z,10.15
2022-08-20T11:53:07.919Z,9.85
2022-08-20T11:55:36.931Z,8.55
2022-08-20T11:58:04.409Z,8.20
2022-08-20T12:00:33.915Z,7.93
2022-08-20T12:03:05.104Z,7.93
2022-08-20T12:05:33.581Z,7.75
2022-08-20T12:08:01.630Z,7.55
2022-08-20T12:10:30.415Z,8.52
2022-08-20T12:12:58.303Z,8.57
2022-08-20T12:15:27.644Z,7.78
2022-08-20T12:17:55.980Z,7.68
2022-08-20T12:20:24.560Z,7.97
2022-08-20T12:22:53.887Z,7.13
2022-08-20T12:25:21.602Z,7.22
2022-08-20T12:27:49.071Z,7.50
2022-08-20T12:30:20.199Z,7.43
2022-08-20T12:32:48.984Z,8.27
2022-08-20T12:35:17.698Z,7.90
2022-08-20T12:37:47.103Z,7.63
2022-08-20T12:40:24.470Z,8.38
2022-08-20T12:43:04.189Z,8.43
2022-08-20T12:45:33.472Z,8.55
2022-08-20T12:48:10.826Z,8.15
2022-08-20T12:50:41.169Z,7.97
2022-08-20T12:53:10.601Z,8.10
2022-08-20T12:55:38.282Z,7.82
2022-08-20T12:58:08.745Z,8.70
2022-08-20T13:00:44.298Z,8.70
2022-08-20T13:03:15.158Z,8.27
2022-08-20T13:05:45.003Z,8.63
2022-08-20T13:08:13.037Z,8.40
2022-08-20T13:10:45.440Z,8.23
2022-08-20T13:13:15.546Z,7.60
2022-08-20T13:15:49.742Z,8.63
2022-08-20T13:18:17.518Z,8.60
2022-08-20T13:20:45.118Z,8.13
2022-08-20T13:23:12.890Z,8.57
2022-08-20T13:25:40.313Z,8.40
2022-08-20T13:28:08.056Z,8.50
2022-08-20T13:30:38.642Z,7.88
2022-08-20T13:33:06.263Z,7.75
2022-08-20T13:35:34.042Z,8.25
2022-08-20T13:38:02.464Z,8.07
2022-08-20T13:40:29.884Z,8.38
2022-08-20T13:42:57.609Z,8.93
2022-08-20T13:45:25.516Z,8.70
2022-08-20T13:47:55.628Z,8.55
2022-08-20T13:50:25.559Z,9.30
2022-08-20T13:52:54.982Z,8.45
2022-08-20T13:55:26.146Z,8.00
2022-08-20T13:57:55.876Z,7.93
2022-08-20T14:00:31.709Z,8.90
2022-08-20T14:03:05.782Z,8.30
2022-08-20T14:05:34.080Z,7.50
2022-08-20T14:08:11.669Z,7.72
2022-08-20T14:10:40.107Z,7.72
2022-08-20T14:13:15.464Z,8.25
2022-08-20T14:15:45.069Z,7.97
2022-08-20T14:18:14.471Z,7.40
2022-08-20T14:20:45.448Z,7.40
2022-08-20T14:23:14.182Z,7.50
2022-08-20T14:25:46.248Z,7.90
2022-08-20T14:28:18.072Z,7.75
2022-08-20T14:30:53.267Z,7.70
2022-08-20T14:33:22.775Z,7.88
2022-08-20T14:35:51.476Z,8.15
2022-08-20T14:38:19.222Z,8.02
2022-08-20T14:40:47.347Z,7.90
2022-08-20T14:43:14.979Z,7.85
2022-08-20T14:45:42.512Z,7.65
2022-08-20T14:48:10.153Z,7.15
2022-08-20T14:50:38.568Z,7.60
2022-08-20T14:53:07.809Z,7.15
2022-08-20T14:55:37.505Z,7.25
2022-08-20T14:58:10.077Z,7.13
2022-08-20T15:00:37.947Z,7.10
2022-08-20T15:03:05.621Z,6.80
2022-08-20T15:05:33.756Z,7.15
2022-08-20T15:08:01.268Z,7.15
2022-08-20T15:10:32.551Z,7.22
2022-08-20T15:13:02.456Z,6.20
2022-08-20T15:15:30.034Z,6.82
2022-08-20T15:18:00.308Z,7.47
2022-08-20T15:20:31.158Z,7.13
2022-08-20T15:22:59.774Z,6.68
2022-08-20T15:25:36.055Z,6.53
2022-08-20T15:28:07.623Z,7.05
2022-08-20T15:30:35.805Z,6.95
2022-08-20T15:33:03.646Z,7.07
2022-08-20T15:35:31.507Z,6.70
2022-08-20T15:37:59.923Z,6.70
2022-08-20T15:40:30.990Z,6.00
2022-08-20T15:43:00.463Z,7.03
2022-08-20T15:45:28.592Z,6.57
2022-08-20T15:48:18.407Z,6.75
2022-08-20T15:50:52.120Z,6.50
2022-08-20T15:53:41.342Z,7.20
2022-08-20T15:56:29.938Z,6.32
2022-08-20T15:59:03.569Z,7.28
2022-08-20T16:01:43.645Z,6.50
2022-08-20T16:04:20.164Z,7.35
2022-08-20T16:06:52.221Z,7.35
2022-08-20T16:09:52.099Z,7.30
2022-08-20T16:12:33.360Z,6.85
2022-08-20T16:15:09.088Z,6.53
2022-08-20T16:17:46.725Z,7.53
2022-08-20T16:20:24.716Z,6.75
2022-08-20T16:22:53.315Z,7.05
2022-08-20T16:25:22.866Z,7.68
2022-08-20T16:28:17.025Z,6.22
2022-08-20T16:30:49.489Z,6.63
2022-08-20T16:33:26.675Z,7.05
2022-08-20T16:35:59.054Z,7.35
2022-08-20T16:38:41.746Z,7.13
2022-08-20T16:41:37.912Z,6.57
2022-08-20T16:44:35.416Z,6.85
2022-08-20T16:47:17.113Z,6.85
2022-08-20T16:49:54.143Z,6.70
2022-08-20T16:52:21.673Z,6.28
2022-08-20T16:54:49.397Z,6.63
2022-08-20T16:57:18.497Z,6.28
2022-08-20T17:00:16.192Z,6.45
2022-08-20T17:02:53.559Z,6.18
2022-08-20T17:05:23.903Z,6.93
2022-08-20T17:08:03.711Z,6.07
2022-08-20T17:10:35.590Z,6.25
2022-08-20T17:13:19.415Z,5.70
2022-08-20T17:16:13.247Z,6.10
2022-08-20T17:18:46.897Z,5.70
2022-08-20T17:21:25.779Z,5.97
2022-08-20T17:23:59.382Z,6.35
2022-08-20T17:26:41.229Z,6.22
2022-08-20T17:29:17.460Z,5.75
2022-08-20T17:31:52.124Z,6.20
2022-08-20T17:34:24.714Z,5.80
2022-08-20T17:36:57.860Z,5.55
2022-08-20T17:39:27.695Z,5.93
2022-08-20T17:42:19.578Z,6.53
2022-08-20T17:44:52.954Z,6.15
2022-08-20T17:47:31.010Z,5.65
2022-08-20T17:50:13.754Z,5.95
2022-08-20T17:52:55.239Z,5.63
2022-08-20T17:55:23.743Z,6.05
2022-08-20T17:57:57.931Z,6.38
2022-08-20T18:00:28.337Z,5.50
2022-08-20T18:03:15.870Z,6.82
2022-08-20T18:05:45.057Z,9.15
2022-08-20T18:08:46.215Z,7.93
2022-08-20T18:11:26.314Z,7.07
2022-08-20T18:14:33.950Z,7.28
2022-08-20T18:17:59.173Z,6.93
2022-08-20T18:20:38.512Z,7.78
2022-08-20T18:23:10.693Z,7.72
2022-08-20T18:25:56.883Z,7.82
2022-08-20T18:28:46.150Z,7.13
2022-08-20T18:31:40.521Z,6.78
2022-08-20T18:34:18.001Z,6.70
2022-08-20T18:37:01.719Z,6.63
2022-08-20T18:39:39.937Z,6.70
2022-08-20T18:42:22.407Z,6.63
2022-08-20T18:44:53.335Z,6.95
2022-08-20T18:47:35.068Z,7.53
2022-08-20T18:50:03.936Z,7.47
2022-08-20T18:52:37.648Z,7.68
2022-08-20T18:55:36.823Z,7.35
2022-08-20T18:58:11.516Z,7.10
2022-08-20T19:00:44.469Z,7.97
2022-08-20T19:03:29.047Z,7.70
2022-08-20T19:05:56.738Z,7.30
2022-08-20T19:08:37.433Z,7.38
2022-08-20T19:11:30.432Z,8.43
2022-08-20T19:14:32.962Z,10.50
2022-08-20T19:17:20.430Z,10.52
2022-08-20T19:20:01.824Z,10.40
2022-08-20T19:22:32.172Z,10.95
2022-08-20T19:25:01.139Z,10.95
2022-08-20T19:27:30.759Z,9.80
2022-08-20T19:29:58.592Z,9.90
2022-08-20T19:32:29.458Z,9.13
2022-08-20T19:35:03.940Z,10.00
2022-08-20T19:37:40.224Z,9.25
2022-08-20T19:40:24.884Z,9.57
2022-08-20T19:42:59.549Z,10.48
2022-08-20T19:45:40.061Z,10.30
2022-08-20T19:48:17.365Z,11.23
2022-08-20T19:51:21.286Z,9.90
2022-08-20T19:53:49.631Z,10.80
2022-08-20T19:56:21.278Z,10.38
2022-08-20T19:59:08.431Z,10.98
2022-08-20T20:01:36.709Z,10.63
2022-08-20T20:04:18.060Z,11.07
2022-08-20T20:06:48.407Z,11.50
2022-08-20T20:09:24.856Z,10.00
2022-08-20T20:11:58.132Z,10.50
2022-08-20T20:14:34.300Z,11.57
2022-08-20T20:17:06.831Z,10.32
2022-08-20T20:19:56.651Z,11.07
2022-08-20T20:22:33.533Z,10.23
2022-08-20T20:25:18.186Z,10.27
2022-08-20T20:28:06.747Z,10.40
2022-08-20T20:30:35.137Z,11.02
2022-08-20T20:33:18.323Z,9.80
2022-08-20T20:35:46.667Z,10.25
2022-08-20T20:38:26.857Z,9.90
2022-08-20T20:41:00.790Z,9.75
2022-08-20T20:43:37.822Z,10.15
2022-08-20T20:46:23.629Z,10.45
2022-08-20T20:48:58.702Z,10.23
2022-08-20T20:51:32.660Z,9.95
2022-08-20T20:54:29.496Z,10.73
2022-08-20T20:57:00.908Z,11.02
2022-08-20T20:59:31.846Z,10.75
2022-08-20T21:02:01.249Z,11.05
2022-08-20T21:04:29.525Z,10.80
2022-08-20T21:07:05.045Z,9.70
2022-08-20T21:09:38.986Z,9.70
2022-08-20T21:12:08.369Z,9.23
2022-08-20T21:14:36.576Z,8.85
2022-08-20T21:17:07.640Z,9.23
2022-08-20T21:19:44.889Z,8.48
2022-08-20T21:22:14.986Z,8.20
2022-08-20T21:24:42.701Z,8.95
2022-08-20T21:27:12.400Z,8.40
2022-08-20T21:29:40.072Z,8.40
2022-08-20T21:32:08.062Z,8.45
2022-08-20T21:34:39.945Z,8.45
2022-08-20T21:37:07.703Z,8.20
2022-08-20T21:39:35.446Z,8.35
2022-08-20T21:42:05.755Z,8.23
2022-08-20T21:44:53.521Z,7.35
2022-08-20T21:47:22.090Z,7.60
2022-08-20T21:49:49.578Z,8.63
2022-08-20T21:52:17.248Z,8.70
2022-08-20T21:54:44.780Z,8.45
2022-08-20T21:57:21.350Z,8.20
2022-08-20T21:59:50.173Z,8.77
2022-08-20T22:02:19.587Z,8.68
2022-08-20T22:04:47.176Z,7.93
2022-08-20T22:07:16.225Z,8.77
2022-08-20T22:09:43.703Z,8.35
2022-08-20T22:12:24.047Z,9.02
2022-08-20T22:14:52.873Z,8.43
2022-08-20T22:17:20.849Z,8.77
2022-08-20T22:19:48.284Z,8.93
2022-08-20T22:22:17.384Z,9.25
2022-08-20T22:24:45.659Z,8.98
2022-08-20T22:27:13.852Z,8.20
2022-08-20T22:29:41.874Z,8.48
2022-08-20T22:32:09.345Z,8.65
2022-08-20T22:34:37.977Z,9.02
2022-08-20T22:37:06.120Z,8.23
2022-08-20T22:39:33.584Z,8.05
2022-08-20T22:42:01.029Z,8.52
2022-08-20T22:44:28.808Z,8.32
2022-08-20T22:47:00.891Z,7.63
2022-08-20T22:49:32.094Z,8.05
2022-08-20T22:52:00.362Z,7.72
2022-08-20T22:54:29.019Z,8.23
2022-08-20T22:56:56.522Z,8.35
2022-08-20T22:59:24.776Z,7.93
2022-08-20T23:01:53.655Z,8.65
2022-08-20T23:04:31.689Z,8.15
2022-08-20T23:07:01.583Z,7.97
2022-08-20T23:09:30.255Z,7.70
2022-08-20T23:11:57.885Z,8.25
2022-08-20T23:14:26.969Z,8.10
2022-08-20T23:17:13.089Z,7.88
2022-08-20T23:19:42.101Z,7.75
2022-08-20T23:22:10.363Z,7.38
2022-08-20T23:24:38.479Z,6.93
2022-08-20T23:27:07.844Z,7.47
2022-08-20T23:29:35.679Z,7.25
2022-08-20T23:32:03.590Z,8.30
2022-08-20T23:34:31.213Z,7.78
2022-08-20T23:36:59.958Z,7.05
2022-08-20T23:39:28.569Z,7.03
2022-08-20T23:41:58.044Z,7.68
2022-08-20T23:44:27.123Z,7.25
2022-08-20T23:46:57.185Z,7.43
2022-08-20T23:49:25.746Z,6.90
2022-08-20T23:51:54.570Z,7.00
2022-08-20T23:54:22.211Z,7.25
2022-08-20T23:56:50.021Z,7.22
2022-08-20T23:59:17.682Z,7.55
